sensor_id;sensor_type;location;lat;lon;timestamp;P1;durP1;ratioP1;P2;durP2;ratioP2
29218;SDS011;16421;50.202;7.852;2024-01-25T00:04:28;14.38;;;3.60;;
29218;SDS011;16421;50.202;7.852;2024-01-25T00:09:31;19.92;;;5.28;;
29218;SDS011;16421;50.202;7.852;2024-01-25T00:14:35;16.83;;;4.80;;
29218;SDS011;16421;50.202;7.852;2024-01-25T00:19:40;20.25;;;4.82;;
29218;SDS011;16421;50.202;7.852;2024-01-25T00:24:43;19.33;;;5.45;;
29218;SDS011;16421;50.202;7.852;2024-01-25T00:29:47;19.15;;;5.65;;
29218;SDS011;16421;50.202;7.852;2024-01-25T00:34:52;15.98;;;4.40;;
29218;SDS011;16421;50.202;7.852;2024-01-25T00:39:56;17.70;;;3.87;;
29218;SDS011;16421;50.202;7.852;2024-01-25T00:45:00;12.52;;;3.83;;
29218;SDS011;16421;50.202;7.852;2024-01-25T00:50:05;24.20;;;5.15;;
29218;SDS011;16421;50.202;7.852;2024-01-25T00:55:10;14.25;;;3.92;;
29218;SDS011;16421;50.202;7.852;2024-01-25T01:00:14;11.95;;;3.55;;
29218;SDS011;16421;50.202;7.852;2024-01-25T01:05:20;19.30;;;4.80;;
29218;SDS011;16421;50.202;7.852;2024-01-25T01:10:24;16.85;;;4.40;;
29218;SDS011;16421;50.202;7.852;2024-01-25T01:15:27;10.50;;;3.33;;
29218;SDS011;16421;50.202;7.852;2024-01-25T01:20:33;21.17;;;4.82;;
29218;SDS011;16421;50.202;7.852;2024-01-25T01:25:36;21.10;;;4.20;;
29218;SDS011;16421;50.202;7.852;2024-01-25T01:30:39;14.18;;;4.22;;
29218;SDS011;16421;50.202;7.852;2024-01-25T01:35:44;12.52;;;3.65;;
29218;SDS011;16421;50.202;7.852;2024-01-25T01:40:48;14.05;;;3.58;;
29218;SDS011;16421;50.202;7.852;2024-01-25T01:45:51;19.80;;;4.38;;
29218;SDS011;16421;50.202;7.852;2024-01-25T01:50:57;22.40;;;5.15;;
29218;SDS011;16421;50.202;7.852;2024-01-25T01:56:01;16.97;;;4.93;;
29218;SDS011;16421;50.202;7.852;2024-01-25T02:01:05;19.52;;;4.75;;
29218;SDS011;16421;50.202;7.852;2024-01-25T02:06:09;13.00;;;3.78;;
29218;SDS011;16421;50.202;7.852;2024-01-25T02:11:13;13.55;;;3.20;;
29218;SDS011;16421;50.202;7.852;2024-01-25T02:16:17;14.57;;;3.63;;
29218;SDS011;16421;50.202;7.852;2024-01-25T02:21:22;18.80;;;4.72;;
29218;SDS011;16421;50.202;7.852;2024-01-25T02:26:27;12.27;;;3.50;;
29218;SDS011;16421;50.202;7.852;2024-01-25T02:31:30;16.02;;;4.25;;
29218;SDS011;16421;50.202;7.852;2024-01-25T02:36:34;10.38;;;3.30;;
29218;SDS011;16421;50.202;7.852;2024-01-25T02:41:38;12.85;;;3.38;;
29218;SDS011;16421;50.202;7.852;2024-01-25T02:46:42;14.05;;;3.72;;
29218;SDS011;16421;50.202;7.852;2024-01-25T02:51:47;10.45;;;2.85;;
29218;SDS011;16421;50.202;7.852;2024-01-25T02:56:52;18.50;;;4.38;;
29218;SDS011;16421;50.202;7.852;2024-01-25T03:01:56;11.68;;;3.97;;
29218;SDS011;16421;50.202;7.852;2024-01-25T03:07:00;15.32;;;3.83;;
29218;SDS011;16421;50.202;7.852;2024-01-25T03:12:05;19.67;;;4.57;;
29218;SDS011;16421;50.202;7.852;2024-01-25T03:17:09;17.77;;;4.07;;
29218;SDS011;16421;50.202;7.852;2024-01-25T03:22:13;19.85;;;4.90;;
29218;SDS011;16421;50.202;7.852;2024-01-25T03:27:18;16.48;;;4.13;;
29218;SDS011;16421;50.202;7.852;2024-01-25T03:32:22;12.07;;;3.30;;
29218;SDS011;16421;50.202;7.852;2024-01-25T03:37:25;12.98;;;3.33;;
29218;SDS011;16421;50.202;7.852;2024-01-25T03:42:30;8.73;;;2.95;;
29218;SDS011;16421;50.202;7.852;2024-01-25T03:47:33;14.85;;;3.78;;
29218;SDS011;16421;50.202;7.852;2024-01-25T03:52:37;9.55;;;2.80;;
29218;SDS011;16421;50.202;7.852;2024-01-25T03:57:41;10.57;;;2.72;;
29218;SDS011;16421;50.202;7.852;2024-01-25T04:02:45;7.05;;;2.13;;
29218;SDS011;16421;50.202;7.852;2024-01-25T04:07:48;16.38;;;4.00;;
29218;SDS011;16421;50.202;7.852;2024-01-25T04:12:53;13.98;;;3.65;;
29218;SDS011;16421;50.202;7.852;2024-01-25T04:17:56;14.10;;;4.80;;
29218;SDS011;16421;50.202;7.852;2024-01-25T04:23:00;15.35;;;5.90;;
29218;SDS011;16421;50.202;7.852;2024-01-25T04:28:05;10.55;;;4.30;;
29218;SDS011;16421;50.202;7.852;2024-01-25T04:33:09;17.60;;;5.65;;
29218;SDS011;16421;50.202;7.852;2024-01-25T04:38:12;14.40;;;4.38;;
29218;SDS011;16421;50.202;7.852;2024-01-25T04:43:17;12.27;;;4.05;;
29218;SDS011;16421;50.202;7.852;2024-01-25T04:48:21;14.15;;;4.50;;
29218;SDS011;16421;50.202;7.852;2024-01-25T04:53:24;12.20;;;4.07;;
29218;SDS011;16421;50.202;7.852;2024-01-25T04:58:29;14.82;;;4.45;;
29218;SDS011;16421;50.202;7.852;2024-01-25T05:03:33;11.27;;;3.00;;
29218;SDS011;16421;50.202;7.852;2024-01-25T05:08:36;9.40;;;3.15;;
29218;SDS011;16421;50.202;7.852;2024-01-25T05:13:41;11.50;;;3.60;;
29218;SDS011;16421;50.202;7.852;2024-01-25T05:18:44;12.65;;;4.32;;
29218;SDS011;16421;50.202;7.852;2024-01-25T05:23:48;12.05;;;4.20;;
29218;SDS011;16421;50.202;7.852;2024-01-25T05:28:53;7.70;;;3.42;;
29218;SDS011;16421;50.202;7.852;2024-01-25T05:33:56;7.72;;;2.95;;
29218;SDS011;16421;50.202;7.852;2024-01-25T05:39:00;9.80;;;3.05;;
29218;SDS011;16421;50.202;7.852;2024-01-25T05:44:09;11.55;;;2.45;;
29218;SDS011;16421;50.202;7.852;2024-01-25T05:49:12;10.40;;;2.47;;
29218;SDS011;16421;50.202;7.852;2024-01-25T05:54:15;7.03;;;2.20;;
29218;SDS011;16421;50.202;7.852;2024-01-25T05:59:20;13.23;;;3.97;;
29218;SDS011;16421;50.202;7.852;2024-01-25T06:04:24;14.38;;;3.72;;
29218;SDS011;16421;50.202;7.852;2024-01-25T06:09:27;9.95;;;2.83;;
29218;SDS011;16421;50.202;7.852;2024-01-25T06:14:32;9.32;;;3.33;;
29218;SDS011;16421;50.202;7.852;2024-01-25T06:19:35;9.50;;;2.85;;
29218;SDS011;16421;50.202;7.852;2024-01-25T06:24:39;8.13;;;2.60;;
29218;SDS011;16421;50.202;7.852;2024-01-25T06:29:43;9.57;;;3.05;;
29218;SDS011;16421;50.202;7.852;2024-01-25T06:34:47;6.30;;;2.25;;
29218;SDS011;16421;50.202;7.852;2024-01-25T06:39:50;5.22;;;1.88;;
29218;SDS011;16421;50.202;7.852;2024-01-25T06:44:55;8.10;;;2.40;;
29218;SDS011;16421;50.202;7.852;2024-01-25T06:49:58;10.63;;;2.97;;
29218;SDS011;16421;50.202;7.852;2024-01-25T06:55:02;6.35;;;2.53;;
29218;SDS011;16421;50.202;7.852;2024-01-25T07:00:07;6.15;;;2.42;;
29218;SDS011;16421;50.202;7.852;2024-01-25T07:05:14;8.65;;;2.45;;
29218;SDS011;16421;50.202;7.852;2024-01-25T07:10:18;11.85;;;2.60;;
29218;SDS011;16421;50.202;7.852;2024-01-25T07:15:23;9.63;;;2.45;;
29218;SDS011;16421;50.202;7.852;2024-01-25T07:20:26;7.93;;;2.58;;
29218;SDS011;16421;50.202;7.852;2024-01-25T07:25:29;11.15;;;3.65;;
29218;SDS011;16421;50.202;7.852;2024-01-25T07:30:34;9.68;;;2.95;;
29218;SDS011;16421;50.202;7.852;2024-01-25T07:35:38;9.18;;;2.92;;
29218;SDS011;16421;50.202;7.852;2024-01-25T07:40:46;6.68;;;2.15;;
29218;SDS011;16421;50.202;7.852;2024-01-25T07:45:51;7.78;;;2.85;;
29218;SDS011;16421;50.202;7.852;2024-01-25T07:50:54;9.40;;;2.85;;
29218;SDS011;16421;50.202;7.852;2024-01-25T07:55:58;8.70;;;2.47;;
29218;SDS011;16421;50.202;7.852;2024-01-25T08:01:03;10.18;;;3.33;;
29218;SDS011;16421;50.202;7.852;2024-01-25T08:06:07;9.57;;;2.22;;
29218;SDS011;16421;50.202;7.852;2024-01-25T08:11:11;9.57;;;2.75;;
29218;SDS011;16421;50.202;7.852;2024-01-25T08:16:16;8.48;;;3.22;;
29218;SDS011;16421;50.202;7.852;2024-01-25T08:21:20;6.80;;;2.88;;
29218;SDS011;16421;50.202;7.852;2024-01-25T08:26:24;12.45;;;3.67;;
29218;SDS011;16421;50.202;7.852;2024-01-25T08:31:28;9.27;;;3.00;;
29218;SDS011;16421;50.202;7.852;2024-01-25T08:36:32;12.80;;;3.53;;
29218;SDS011;16421;50.202;7.852;2024-01-25T08:41:35;8.15;;;2.65;;
29218;SDS011;16421;50.202;7.852;2024-01-25T08:46:41;12.23;;;4.00;;
29218;SDS011;16421;50.202;7.852;2024-01-25T08:51:45;12.38;;;4.65;;
29218;SDS011;16421;50.202;7.852;2024-01-25T08:56:49;8.85;;;3.17;;
29218;SDS011;16421;50.202;7.852;2024-01-25T09:01:54;23.05;;;5.75;;
29218;SDS011;16421;50.202;7.852;2024-01-25T09:06:57;15.32;;;4.20;;
29218;SDS011;16421;50.202;7.852;2024-01-25T09:12:00;16.27;;;4.30;;
29218;SDS011;16421;50.202;7.852;2024-01-25T09:17:05;15.70;;;4.28;;
29218;SDS011;16421;50.202;7.852;2024-01-25T09:22:10;12.07;;;3.50;;
29218;SDS011;16421;50.202;7.852;2024-01-25T09:27:13;19.95;;;5.05;;
29218;SDS011;16421;50.202;7.852;2024-01-25T09:32:18;26.17;;;4.68;;
29218;SDS011;16421;50.202;7.852;2024-01-25T09:37:22;13.23;;;4.13;;
29218;SDS011;16421;50.202;7.852;2024-01-25T09:42:25;14.50;;;3.72;;
29218;SDS011;16421;50.202;7.852;2024-01-25T09:47:30;15.27;;;4.07;;
29218;SDS011;16421;50.202;7.852;2024-01-25T09:52:34;14.77;;;4.60;;
29218;SDS011;16421;50.202;7.852;2024-01-25T09:57:37;19.45;;;5.05;;
29218;SDS011;16421;50.202;7.852;2024-01-25T10:02:44;22.65;;;5.55;;
29218;SDS011;16421;50.202;7.852;2024-01-25T10:07:49;15.00;;;4.50;;
29218;SDS011;16421;50.202;7.852;2024-01-25T10:12:55;17.65;;;4.25;;
29218;SDS011;16421;50.202;7.852;2024-01-25T10:18:00;21.58;;;5.82;;
29218;SDS011;16421;50.202;7.852;2024-01-25T10:23:06;21.13;;;4.95;;
29218;SDS011;16421;50.202;7.852;2024-01-25T10:28:09;19.88;;;5.70;;
29218;SDS011;16421;50.202;7.852;2024-01-25T10:33:15;18.98;;;5.00;;
29218;SDS011;16421;50.202;7.852;2024-01-25T10:38:19;19.83;;;6.03;;
29218;SDS011;16421;50.202;7.852;2024-01-25T10:43:23;19.52;;;5.40;;
29218;SDS011;16421;50.202;7.852;2024-01-25T10:48:28;25.67;;;6.07;;
29218;SDS011;16421;50.202;7.852;2024-01-25T10:58:40;12.88;;;4.32;;
29218;SDS011;16421;50.202;7.852;2024-01-25T11:03:46;17.27;;;4.20;;
29218;SDS011;16421;50.202;7.852;2024-01-25T11:08:50;18.80;;;5.18;;
29218;SDS011;16421;50.202;7.852;2024-01-25T11:13:55;18.40;;;5.30;;
29218;SDS011;16421;50.202;7.852;2024-01-25T11:19:00;16.63;;;4.85;;
29218;SDS011;16421;50.202;7.852;2024-01-25T11:24:11;14.13;;;4.40;;
29218;SDS011;16421;50.202;7.852;2024-01-25T11:29:15;20.13;;;5.25;;
29218;SDS011;16421;50.202;7.852;2024-01-25T11:34:23;19.67;;;4.13;;
29218;SDS011;16421;50.202;7.852;2024-01-25T11:39:27;20.63;;;4.72;;
29218;SDS011;16421;50.202;7.852;2024-01-25T11:44:30;16.58;;;4.30;;
29218;SDS011;16421;50.202;7.852;2024-01-25T11:49:35;15.73;;;4.55;;
29218;SDS011;16421;50.202;7.852;2024-01-25T11:54:39;14.13;;;3.67;;
29218;SDS011;16421;50.202;7.852;2024-01-25T11:59:43;16.38;;;4.47;;
29218;SDS011;16421;50.202;7.852;2024-01-25T12:04:48;12.85;;;3.80;;
29218;SDS011;16421;50.202;7.852;2024-01-25T12:09:58;14.93;;;3.95;;
29218;SDS011;16421;50.202;7.852;2024-01-25T12:15:05;15.02;;;3.67;;
29218;SDS011;16421;50.202;7.852;2024-01-25T12:20:11;11.73;;;3.20;;
29218;SDS011;16421;50.202;7.852;2024-01-25T12:25:14;9.98;;;2.47;;
29218;SDS011;16421;50.202;7.852;2024-01-25T12:30:18;15.40;;;4.07;;
29218;SDS011;16421;50.202;7.852;2024-01-25T12:35:23;18.40;;;4.35;;
29218;SDS011;16421;50.202;7.852;2024-01-25T12:40:26;11.38;;;2.80;;
29218;SDS011;16421;50.202;7.852;2024-01-25T12:45:29;21.77;;;5.35;;
29218;SDS011;16421;50.202;7.852;2024-01-25T12:50:34;19.10;;;4.47;;
29218;SDS011;16421;50.202;7.852;2024-01-25T12:55:38;13.07;;;3.90;;
29218;SDS011;16421;50.202;7.852;2024-01-25T13:00:42;16.02;;;4.80;;
29218;SDS011;16421;50.202;7.852;2024-01-25T13:05:48;10.98;;;3.60;;
29218;SDS011;16421;50.202;7.852;2024-01-25T13:10:51;7.53;;;2.50;;
29218;SDS011;16421;50.202;7.852;2024-01-25T13:15:54;10.60;;;3.10;;
29218;SDS011;16421;50.202;7.852;2024-01-25T13:21:00;9.65;;;2.38;;
29218;SDS011;16421;50.202;7.852;2024-01-25T13:26:03;20.83;;;4.38;;
29218;SDS011;16421;50.202;7.852;2024-01-25T13:31:07;16.38;;;4.25;;
29218;SDS011;16421;50.202;7.852;2024-01-25T13:36:11;15.88;;;4.28;;
29218;SDS011;16421;50.202;7.852;2024-01-25T13:41:15;10.45;;;3.17;;
29218;SDS011;16421;50.202;7.852;2024-01-25T13:46:19;9.48;;;3.17;;
29218;SDS011;16421;50.202;7.852;2024-01-25T13:51:24;17.05;;;4.95;;
29218;SDS011;16421;50.202;7.852;2024-01-25T13:56:27;7.57;;;2.90;;
29218;SDS011;16421;50.202;7.852;2024-01-25T14:01:31;8.10;;;2.08;;
29218;SDS011;16421;50.202;7.852;2024-01-25T14:06:36;6.97;;;2.17;;
29218;SDS011;16421;50.202;7.852;2024-01-25T14:11:39;11.38;;;3.33;;
29218;SDS011;16421;50.202;7.852;2024-01-25T14:16:43;10.35;;;3.00;;
29218;SDS011;16421;50.202;7.852;2024-01-25T14:21:47;4.28;;;2.08;;
29218;SDS011;16421;50.202;7.852;2024-01-25T14:26:57;7.18;;;2.25;;
29218;SDS011;16421;50.202;7.852;2024-01-25T14:32:01;13.00;;;3.05;;
29218;SDS011;16421;50.202;7.852;2024-01-25T14:37:06;11.00;;;2.75;;
29218;SDS011;16421;50.202;7.852;2024-01-25T14:42:09;9.30;;;2.95;;
29218;SDS011;16421;50.202;7.852;2024-01-25T14:47:13;11.40;;;3.22;;
29218;SDS011;16421;50.202;7.852;2024-01-25T14:52:22;15.02;;;3.65;;
29218;SDS011;16421;50.202;7.852;2024-01-25T14:57:26;9.18;;;3.08;;
29218;SDS011;16421;50.202;7.852;2024-01-25T15:02:30;12.73;;;3.55;;
29218;SDS011;16421;50.202;7.852;2024-01-25T15:07:36;8.88;;;2.33;;
29218;SDS011;16421;50.202;7.852;2024-01-25T15:12:40;8.15;;;2.30;;
29218;SDS011;16421;50.202;7.852;2024-01-25T15:17:44;8.82;;;2.45;;
29218;SDS011;16421;50.202;7.852;2024-01-25T15:22:49;9.30;;;2.58;;
29218;SDS011;16421;50.202;7.852;2024-01-25T15:27:52;6.40;;;1.92;;
29218;SDS011;16421;50.202;7.852;2024-01-25T15:32:56;6.70;;;1.85;;
29218;SDS011;16421;50.202;7.852;2024-01-25T15:38:02;3.70;;;1.60;;
29218;SDS011;16421;50.202;7.852;2024-01-25T15:43:08;4.60;;;1.40;;
29218;SDS011;16421;50.202;7.852;2024-01-25T15:48:12;10.38;;;2.85;;
29218;SDS011;16421;50.202;7.852;2024-01-25T15:53:16;6.65;;;2.47;;
29218;SDS011;16421;50.202;7.852;2024-01-25T15:58:20;8.10;;;2.15;;
29218;SDS011;16421;50.202;7.852;2024-01-25T16:03:23;5.05;;;1.77;;
29218;SDS011;16421;50.202;7.852;2024-01-25T16:08:28;8.10;;;2.83;;
29218;SDS011;16421;50.202;7.852;2024-01-25T16:13:32;8.47;;;2.93;;
29218;SDS011;16421;50.202;7.852;2024-01-25T16:18:35;7.45;;;2.67;;
29218;SDS011;16421;50.202;7.852;2024-01-25T16:23:40;10.05;;;3.50;;
29218;SDS011;16421;50.202;7.852;2024-01-25T16:28:43;8.05;;;3.10;;
29218;SDS011;16421;50.202;7.852;2024-01-25T16:33:47;7.72;;;2.80;;
29218;SDS011;16421;50.202;7.852;2024-01-25T16:38:51;11.60;;;3.60;;
29218;SDS011;16421;50.202;7.852;2024-01-25T16:43:55;8.90;;;3.30;;
29218;SDS011;16421;50.202;7.852;2024-01-25T16:48:58;8.18;;;3.13;;
29218;SDS011;16421;50.202;7.852;2024-01-25T16:54:03;18.70;;;4.18;;
29218;SDS011;16421;50.202;7.852;2024-01-25T16:59:07;20.35;;;3.92;;
29218;SDS011;16421;50.202;7.852;2024-01-25T17:04:10;14.82;;;3.47;;
29218;SDS011;16421;50.202;7.852;2024-01-25T17:09:15;8.02;;;2.70;;
29218;SDS011;16421;50.202;7.852;2024-01-25T17:14:19;5.25;;;2.08;;
29218;SDS011;16421;50.202;7.852;2024-01-25T17:19:22;6.35;;;2.00;;
29218;SDS011;16421;50.202;7.852;2024-01-25T17:24:27;5.00;;;1.90;;
29218;SDS011;16421;50.202;7.852;2024-01-25T17:29:30;8.25;;;2.50;;
29218;SDS011;16421;50.202;7.852;2024-01-25T17:34:34;7.28;;;2.15;;
29218;SDS011;16421;50.202;7.852;2024-01-25T17:39:43;6.32;;;2.00;;
29218;SDS011;16421;50.202;7.852;2024-01-25T17:44:47;6.00;;;2.25;;
29218;SDS011;16421;50.202;7.852;2024-01-25T17:49:52;5.72;;;2.70;;
29218;SDS011;16421;50.202;7.852;2024-01-25T17:54:57;7.07;;;2.90;;
29218;SDS011;16421;50.202;7.852;2024-01-25T18:00:00;6.10;;;2.88;;
29218;SDS011;16421;50.202;7.852;2024-01-25T18:05:05;6.68;;;2.20;;
29218;SDS011;16421;50.202;7.852;2024-01-25T18:10:11;9.07;;;2.55;;
29218;SDS011;16421;50.202;7.852;2024-01-25T18:15:15;8.27;;;2.87;;
29218;SDS011;16421;50.202;7.852;2024-01-25T18:20:22;9.75;;;3.55;;
29218;SDS011;16421;50.202;7.852;2024-01-25T18:25:29;8.10;;;3.17;;
29218;SDS011;16421;50.202;7.852;2024-01-25T18:30:33;8.25;;;2.95;;
29218;SDS011;16421;50.202;7.852;2024-01-25T18:35:38;11.40;;;3.85;;
29218;SDS011;16421;50.202;7.852;2024-01-25T18:40:43;6.25;;;2.97;;
29218;SDS011;16421;50.202;7.852;2024-01-25T18:45:46;10.77;;;3.25;;
29218;SDS011;16421;50.202;7.852;2024-01-25T18:50:50;10.13;;;2.92;;
29218;SDS011;16421;50.202;7.852;2024-01-25T18:55:55;7.60;;;2.10;;
29218;SDS011;16421;50.202;7.852;2024-01-25T19:00:59;5.13;;;2.60;;
29218;SDS011;16421;50.202;7.852;2024-01-25T19:06:05;4.65;;;2.00;;
29218;SDS011;16421;50.202;7.852;2024-01-25T19:11:10;6.30;;;1.85;;
29218;SDS011;16421;50.202;7.852;2024-01-25T19:16:14;3.10;;;1.65;;
29218;SDS011;16421;50.202;7.852;2024-01-25T19:21:17;7.00;;;2.60;;
29218;SDS011;16421;50.202;7.852;2024-01-25T19:26:22;6.68;;;2.45;;
29218;SDS011;16421;50.202;7.852;2024-01-25T19:31:27;7.90;;;2.60;;
29218;SDS011;16421;50.202;7.852;2024-01-25T19:36:33;6.57;;;2.15;;
29218;SDS011;16421;50.202;7.852;2024-01-25T19:41:39;6.55;;;2.47;;
29218;SDS011;16421;50.202;7.852;2024-01-25T19:46:43;5.95;;;2.35;;
29218;SDS011;16421;50.202;7.852;2024-01-25T19:51:48;8.15;;;2.50;;
29218;SDS011;16421;50.202;7.852;2024-01-25T19:56:53;4.72;;;1.98;;
29218;SDS011;16421;50.202;7.852;2024-01-25T20:01:57;3.45;;;1.63;;
29218;SDS011;16421;50.202;7.852;2024-01-25T20:07:01;3.20;;;1.75;;
29218;SDS011;16421;50.202;7.852;2024-01-25T20:12:06;5.53;;;2.30;;
29218;SDS011;16421;50.202;7.852;2024-01-25T20:17:12;4.68;;;2.33;;
29218;SDS011;16421;50.202;7.852;2024-01-25T20:22:20;6.60;;;2.72;;
29218;SDS011;16421;50.202;7.852;2024-01-25T20:27:24;6.45;;;2.58;;
29218;SDS011;16421;50.202;7.852;2024-01-25T20:32:28;3.67;;;2.03;;
29218;SDS011;16421;50.202;7.852;2024-01-25T20:37:32;3.97;;;1.90;;
29218;SDS011;16421;50.202;7.852;2024-01-25T20:42:37;4.03;;;2.00;;
29218;SDS011;16421;50.202;7.852;2024-01-25T20:47:40;2.28;;;1.20;;
29218;SDS011;16421;50.202;7.852;2024-01-25T20:52:43;2.20;;;1.08;;
29218;SDS011;16421;50.202;7.852;2024-01-25T20:57:48;2.33;;;0.98;;
29218;SDS011;16421;50.202;7.852;2024-01-25T21:02:53;2.20;;;1.20;;
29218;SDS011;16421;50.202;7.852;2024-01-25T21:07:57;2.92;;;1.38;;
29218;SDS011;16421;50.202;7.852;2024-01-25T21:13:02;2.05;;;1.20;;
29218;SDS011;16421;50.202;7.852;2024-01-25T21:18:06;1.92;;;0.98;;
29218;SDS011;16421;50.202;7.852;2024-01-25T21:23:09;2.42;;;1.10;;
29218;SDS011;16421;50.202;7.852;2024-01-25T21:28:13;3.15;;;1.60;;
29218;SDS011;16421;50.202;7.852;2024-01-25T21:33:17;2.33;;;1.52;;
29218;SDS011;16421;50.202;7.852;2024-01-25T21:38:20;2.65;;;1.38;;
29218;SDS011;16421;50.202;7.852;2024-01-25T21:43:25;1.55;;;0.70;;
29218;SDS011;16421;50.202;7.852;2024-01-25T21:48:28;1.67;;;0.98;;
29218;SDS011;16421;50.202;7.852;2024-01-25T21:53:31;1.77;;;1.00;;
29218;SDS011;16421;50.202;7.852;2024-01-25T21:58:36;1.25;;;0.65;;
29218;SDS011;16421;50.202;7.852;2024-01-25T22:03:39;1.08;;;0.63;;
29218;SDS011;16421;50.202;7.852;2024-01-25T22:08:43;4.03;;;1.05;;
29218;SDS011;16421;50.202;7.852;2024-01-25T22:13:47;1.05;;;0.90;;
29218;SDS011;16421;50.202;7.852;2024-01-25T22:18:54;3.42;;;1.08;;
29218;SDS011;16421;50.202;7.852;2024-01-25T22:23:57;2.10;;;1.15;;
29218;SDS011;16421;50.202;7.852;2024-01-25T22:29:02;2.13;;;1.20;;
29218;SDS011;16421;50.202;7.852;2024-01-25T22:34:06;3.65;;;1.90;;
29218;SDS011;16421;50.202;7.852;2024-01-25T22:39:09;3.40;;;1.70;;
29218;SDS011;16421;50.202;7.852;2024-01-25T22:44:14;3.65;;;1.83;;
29218;SDS011;16421;50.202;7.852;2024-01-25T22:49:17;2.38;;;1.40;;
29218;SDS011;16421;50.202;7.852;2024-01-25T22:54:21;4.45;;;2.03;;
29218;SDS011;16421;50.202;7.852;2024-01-25T22:59:25;3.95;;;2.00;;
29218;SDS011;16421;50.202;7.852;2024-01-25T23:04:29;2.75;;;1.63;;
29218;SDS011;16421;50.202;7.852;2024-01-25T23:09:32;3.10;;;1.77;;
29218;SDS011;16421;50.202;7.852;2024-01-25T23:14:37;2.38;;;1.50;;
29218;SDS011;16421;50.202;7.852;2024-01-25T23:19:43;2.35;;;1.75;;
29218;SDS011;16421;50.202;7.852;2024-01-25T23:24:48;2.05;;;1.23;;
29218;SDS011;16421;50.202;7.852;2024-01-25T23:29:53;1.45;;;1.13;;
29218;SDS011;16421;50.202;7.852;2024-01-25T23:34:56;2.03;;;1.40;;
29218;SDS011;16421;50.202;7.852;2024-01-25T23:39:59;2.00;;;1.35;;
29218;SDS011;16421;50.202;7.852;2024-01-25T23:45:05;3.00;;;1.75;;
29218;SDS011;16421;50.202;7.852;2024-01-25T23:50:09;2.78;;;1.80;;
29218;SDS011;16421;50.202;7.852;2024-01-25T23:55:13;3.50;;;2.00;;
